Terminal Aerodrome Forecast
Issued by NWS

Home | Current Version | Previous Version | Text Only | Print | Product List | Glossary On
Versions: 1 2 3 4 5 6 7 8 9 10 11 12 13 14 15 16 17 18 19 20 21 22 23 24 25 26
000
FTUS41 KBGM 021729
TAFITH
TAF
KITH 021729Z 0218/0318 31005KT P6SM SCT035
     FM030000 VRB03KT P6SM SKC
     FM030900 VRB03KT 4SM BR SCT120
     FM031300 32005KT P6SM SCT025 BKN035=

USA.gov is the U.S. government's official web portal to all federal, state and local government web resources and services.